Aérodrome :
LOGIN :

S'inscrire | Disclaimer

   EN    FR    IT 

 










Légende :    VFR   VFR Marginal   IFR   IFR Intensif   IFR Très Intensif
Visi : 
Plafond : 
>= 8 km
>= 3000ft
5 à 8 km
1000 à 3000 ft
1500m à 5 km
500 à 1000 ft
800 à 1500m
200 à 500 ft
< 800m
< 200 ft
Symboles :   Orages  Brouillard  Fortes neiges  Fortes précipitations  Vent > 20 kt
SIGMETs :   Divers  Orages  Givrage  Turbulence  Onde Orograph.  Cendres Volcan.







- Altitude de l'aérodrome : 1363 ft


ETIC - Grafenwohr Army Air Field

DERNIER METAR :
  • 170826Z AUTO 29009KT 9999 OVC029 14/08 A3007 RMK AO2 SLP180 $

METARs EXPIRÉS :
  • 170811Z AUTO 29008KT 9999 OVC030 13/08 A3007 RMK AO2 SLP180 $
  • 170756Z AUTO 32006KT 9999 BKN028 OVC033 13/08 A3008 RMK AO2 SLP185 T01330079 $
  • 170656Z AUTO 32007KT 9999 OVC027 13/10 A3007 RMK AO2 SLP180 T01300100 $
  • 170556Z AUTO 00000KT 9999 FEW010 FEW021 BKN028 OVC033 12/11 A3005 RMK AO2 CIG 021V031 SLP173 T01230109 10153 20121 53004 $
  • 170541Z AUTO 33004KT 9999 SCT010 SCT014 BKN021 OVC029 12/11 A3006 RMK AO2 CIG 013V021 BKN V OVC SLP176 $

TAF TAF ETIC
Valide du 17 à 06h jusqu'au 18 à 12h UTC


170619Z 1706/1812 32006KT 9999 BKN020 QNH3004INS
BECMG 1707/1708 34009KT 9999 BKN020 QNH3009INS
TEMPO 1711/1714 29010G20KT
BECMG 1713/1714 30006KT 9999 SCT030 QNH3006INS
BECMG 1802/1803 31006KT 1600 BR BKN020 QNH3025INS
BECMG 1807/1808 30006KT 9999 NSW OVC020 QNH3031INS TX18/1713Z TN06/1803Z
Pas de NOTAMs connus pour ce terrain.



MET'MAP, la Météo Aéronautique d'un coup d'oeil ! - Copyright ORBIFLY Décembre 2007 - Disclaimer

ORBIFLY MET'MAP TEAM :

Programmation & Développement : Alexandra Zaïnal
Conception & Développement : Baudouin d'Aumeries
Co-Programmation & Développement : Marc-Olivier Méhu
Soutien technique & logistique : Manuel Goepfert

Contact : metmap@orbifly.com




SOURCES & CREDITS :

   NOAA